sensor_id;sensor_type;location;lat;lon;timestamp;temperature;humidity
37594;DHT22;23441;50.856;6.076;2022-07-03T14:32:50;27.10;82.80
37594;DHT22;23441;50.856;6.076;2022-07-03T14:35:15;26.60;83.00
37594;DHT22;23441;50.856;6.076;2022-07-03T14:37:41;26.30;84.70
37594;DHT22;23441;50.856;6.076;2022-07-03T14:40:07;26.70;82.90
37594;DHT22;23441;50.856;6.076;2022-07-03T14:42:33;26.40;82.70
37594;DHT22;23441;50.856;6.076;2022-07-03T14:44:59;26.40;83.50
37594;DHT22;23441;50.856;6.076;2022-07-03T14:47:25;26.50;83.10
37594;DHT22;23441;50.856;6.076;2022-07-03T14:49:51;25.50;85.50
37594;DHT22;23441;50.856;6.076;2022-07-03T14:52:17;25.20;85.50
37594;DHT22;23441;50.856;6.076;2022-07-03T14:54:44;24.90;85.40
37594;DHT22;23441;50.856;6.076;2022-07-03T15:00:07;26.20;86.20
37594;DHT22;23441;50.856;6.076;2022-07-03T15:02:45;25.20;84.50
37594;DHT22;23441;50.856;6.076;2022-07-03T15:05:15;25.00;85.10
37594;DHT22;23441;50.856;6.076;2022-07-03T15:10:25;25.60;85.20
37594;DHT22;23441;50.856;6.076;2022-07-03T15:12:52;25.90;86.60
37594;DHT22;23441;50.856;6.076;2022-07-03T15:15:21;25.80;84.10
37594;DHT22;23441;50.856;6.076;2022-07-03T15:17:50;25.60;84.10
37594;DHT22;23441;50.856;6.076;2022-07-03T15:20:18;25.40;82.50
37594;DHT22;23441;50.856;6.076;2022-07-03T15:22:46;25.70;85.90
37594;DHT22;23441;50.856;6.076;2022-07-03T15:25:15;25.90;85.80
37594;DHT22;23441;50.856;6.076;2022-07-03T15:27:46;25.70;81.30
37594;DHT22;23441;50.856;6.076;2022-07-03T15:30:14;25.20;86.20
37594;DHT22;23441;50.856;6.076;2022-07-03T15:32:40;25.10;84.90
37594;DHT22;23441;50.856;6.076;2022-07-03T15:35:10;25.00;83.50
37594;DHT22;23441;50.856;6.076;2022-07-03T15:38:06;25.00;83.50
37594;DHT22;23441;50.856;6.076;2022-07-03T15:40:52;25.10;84.30
37594;DHT22;23441;50.856;6.076;2022-07-03T15:43:44;25.20;81.90
37594;DHT22;23441;50.856;6.076;2022-07-03T15:46:36;25.50;83.70
37594;DHT22;23441;50.856;6.076;2022-07-03T15:51:44;24.90;82.60
37594;DHT22;23441;50.856;6.076;2022-07-03T15:54:42;25.00;82.80
37594;DHT22;23441;50.856;6.076;2022-07-03T15:57:28;25.10;81.50
37594;DHT22;23441;50.856;6.076;2022-07-03T16:00:06;24.90;81.10
37594;DHT22;23441;50.856;6.076;2022-07-03T16:05:17;24.70;83.00
37594;DHT22;23441;50.856;6.076;2022-07-03T16:07:45;24.60;84.30
37594;DHT22;23441;50.856;6.076;2022-07-03T16:10:14;24.10;85.00
37594;DHT22;23441;50.856;6.076;2022-07-03T16:12:40;24.40;83.10
37594;DHT22;23441;50.856;6.076;2022-07-03T16:15:08;24.40;82.90
37594;DHT22;23441;50.856;6.076;2022-07-03T16:17:34;24.50;80.80
37594;DHT22;23441;50.856;6.076;2022-07-03T16:20:04;24.40;82.90
37594;DHT22;23441;50.856;6.076;2022-07-03T16:22:34;24.10;81.50
37594;DHT22;23441;50.856;6.076;2022-07-03T16:25:03;24.40;81.40
37594;DHT22;23441;50.856;6.076;2022-07-03T16:27:31;24.50;80.90
37594;DHT22;23441;50.856;6.076;2022-07-03T16:29:57;24.40;80.60
37594;DHT22;23441;50.856;6.076;2022-07-03T16:32:40;24.40;81.40
37594;DHT22;23441;50.856;6.076;2022-07-03T16:35:10;24.30;80.30
37594;DHT22;23441;50.856;6.076;2022-07-03T16:38:01;24.10;81.30
37594;DHT22;23441;50.856;6.076;2022-07-03T16:40:29;23.70;81.00
37594;DHT22;23441;50.856;6.076;2022-07-03T16:43:02;23.60;81.20
37594;DHT22;23441;50.856;6.076;2022-07-03T16:45:34;23.70;82.00
37594;DHT22;23441;50.856;6.076;2022-07-03T16:48:08;23.90;81.40
37594;DHT22;23441;50.856;6.076;2022-07-03T16:50:41;24.10;80.70
37594;DHT22;23441;50.856;6.076;2022-07-03T16:53:17;23.70;80.30
37594;DHT22;23441;50.856;6.076;2022-07-03T16:55:47;23.80;81.80
37594;DHT22;23441;50.856;6.076;2022-07-03T16:58:15;23.80;81.80
37594;DHT22;23441;50.856;6.076;2022-07-03T17:00:42;24.00;80.20
37594;DHT22;23441;50.856;6.076;2022-07-03T17:03:10;23.90;82.50
37594;DHT22;23441;50.856;6.076;2022-07-03T17:05:38;23.90;81.60
37594;DHT22;23441;50.856;6.076;2022-07-03T17:08:05;23.90;81.00
37594;DHT22;23441;50.856;6.076;2022-07-03T17:10:32;23.80;82.50
37594;DHT22;23441;50.856;6.076;2022-07-03T17:12:59;23.90;82.80
37594;DHT22;23441;50.856;6.076;2022-07-03T17:15:28;23.40;82.50
37594;DHT22;23441;50.856;6.076;2022-07-03T17:17:57;23.20;82.80
37594;DHT22;23441;50.856;6.076;2022-07-03T17:20:29;23.00;83.30
37594;DHT22;23441;50.856;6.076;2022-07-03T17:25:44;22.80;84.20
37594;DHT22;23441;50.856;6.076;2022-07-03T17:28:14;22.90;84.30
37594;DHT22;23441;50.856;6.076;2022-07-03T17:30:47;22.90;85.20
37594;DHT22;23441;50.856;6.076;2022-07-03T17:33:18;23.00;84.30
37594;DHT22;23441;50.856;6.076;2022-07-03T17:35:50;22.70;82.90
37594;DHT22;23441;50.856;6.076;2022-07-03T17:38:21;22.50;82.90
37594;DHT22;23441;50.856;6.076;2022-07-03T17:40:48;22.60;83.00
37594;DHT22;23441;50.856;6.076;2022-07-03T17:43:15;22.40;84.20
37594;DHT22;23441;50.856;6.076;2022-07-03T17:45:43;22.40;84.90
37594;DHT22;23441;50.856;6.076;2022-07-03T17:48:09;22.30;86.00
37594;DHT22;23441;50.856;6.076;2022-07-03T17:50:35;22.10;85.40
37594;DHT22;23441;50.856;6.076;2022-07-03T17:53:02;22.00;85.10
37594;DHT22;23441;50.856;6.076;2022-07-03T17:55:29;21.90;85.20
37594;DHT22;23441;50.856;6.076;2022-07-03T17:57:55;21.70;86.30
37594;DHT22;23441;50.856;6.076;2022-07-03T18:00:23;21.60;87.00
37594;DHT22;23441;50.856;6.076;2022-07-03T18:02:52;21.70;85.90
37594;DHT22;23441;50.856;6.076;2022-07-03T18:05:20;21.70;85.40
37594;DHT22;23441;50.856;6.076;2022-07-03T18:08:05;21.60;86.20
37594;DHT22;23441;50.856;6.076;2022-07-03T18:10:53;21.50;87.10
37594;DHT22;23441;50.856;6.076;2022-07-03T18:16:10;21.50;87.60
37594;DHT22;23441;50.856;6.076;2022-07-03T18:18:42;21.50;87.30
37594;DHT22;23441;50.856;6.076;2022-07-03T18:21:14;21.30;87.00
37594;DHT22;23441;50.856;6.076;2022-07-03T18:23:50;21.20;89.40
37594;DHT22;23441;50.856;6.076;2022-07-03T18:26:25;21.10;87.60
37594;DHT22;23441;50.856;6.076;2022-07-03T18:28:57;20.90;89.30
37594;DHT22;23441;50.856;6.076;2022-07-03T18:31:23;21.00;87.50
37594;DHT22;23441;50.856;6.076;2022-07-03T18:33:52;21.00;88.20
37594;DHT22;23441;50.856;6.076;2022-07-03T18:36:20;21.20;88.50
37594;DHT22;23441;50.856;6.076;2022-07-03T18:38:48;21.30;89.70
37594;DHT22;23441;50.856;6.076;2022-07-03T18:41:15;21.10;88.30
37594;DHT22;23441;50.856;6.076;2022-07-03T18:43:42;21.20;89.00
37594;DHT22;23441;50.856;6.076;2022-07-03T18:46:07;21.10;87.90
37594;DHT22;23441;50.856;6.076;2022-07-03T18:48:34;21.10;89.40
37594;DHT22;23441;50.856;6.076;2022-07-03T18:51:07;21.00;89.40
37594;DHT22;23441;50.856;6.076;2022-07-03T18:53:48;20.80;90.80
37594;DHT22;23441;50.856;6.076;2022-07-03T19:02:06;20.40;92.90
37594;DHT22;23441;50.856;6.076;2022-07-03T19:04:49;20.10;93.50
37594;DHT22;23441;50.856;6.076;2022-07-03T19:07:35;19.90;94.00
37594;DHT22;23441;50.856;6.076;2022-07-03T19:10:09;19.80;94.20
37594;DHT22;23441;50.856;6.076;2022-07-03T19:12:39;19.80;94.50
37594;DHT22;23441;50.856;6.076;2022-07-03T19:15:15;19.80;94.60
37594;DHT22;23441;50.856;6.076;2022-07-03T19:17:52;19.70;95.00
37594;DHT22;23441;50.856;6.076;2022-07-03T19:20:18;19.70;94.90
37594;DHT22;23441;50.856;6.076;2022-07-03T19:22:44;19.60;94.80
37594;DHT22;23441;50.856;6.076;2022-07-03T19:25:10;19.70;94.90
37594;DHT22;23441;50.856;6.076;2022-07-03T19:27:36;19.50;95.20
37594;DHT22;23441;50.856;6.076;2022-07-03T19:30:04;19.40;95.30
37594;DHT22;23441;50.856;6.076;2022-07-03T19:32:30;19.40;95.60
37594;DHT22;23441;50.856;6.076;2022-07-03T19:34:56;19.30;95.90
37594;DHT22;23441;50.856;6.076;2022-07-03T19:37:22;19.20;95.90
37594;DHT22;23441;50.856;6.076;2022-07-03T19:39:47;19.20;96.30
37594;DHT22;23441;50.856;6.076;2022-07-03T19:42:14;19.10;96.60
37594;DHT22;23441;50.856;6.076;2022-07-03T19:44:40;19.00;97.20
37594;DHT22;23441;50.856;6.076;2022-07-03T19:47:06;18.90;97.00
37594;DHT22;23441;50.856;6.076;2022-07-03T19:49:32;18.90;96.20
37594;DHT22;23441;50.856;6.076;2022-07-03T19:51:58;18.70;96.80
37594;DHT22;23441;50.856;6.076;2022-07-03T19:54:24;18.60;96.70
37594;DHT22;23441;50.856;6.076;2022-07-03T19:56:50;18.60;97.00
37594;DHT22;23441;50.856;6.076;2022-07-03T19:59:16;18.50;97.30
37594;DHT22;23441;50.856;6.076;2022-07-03T20:01:42;18.40;97.90
37594;DHT22;23441;50.856;6.076;2022-07-03T20:04:09;18.40;97.70
37594;DHT22;23441;50.856;6.076;2022-07-03T20:06:35;18.40;98.20
37594;DHT22;23441;50.856;6.076;2022-07-03T20:09:01;18.20;98.60
37594;DHT22;23441;50.856;6.076;2022-07-03T20:11:27;18.20;98.70
37594;DHT22;23441;50.856;6.076;2022-07-03T20:13:54;18.10;98.80
37594;DHT22;23441;50.856;6.076;2022-07-03T20:16:20;18.00;99.10
37594;DHT22;23441;50.856;6.076;2022-07-03T20:18:46;18.00;99.20
37594;DHT22;23441;50.856;6.076;2022-07-03T20:21:12;18.00;99.20
37594;DHT22;23441;50.856;6.076;2022-07-03T20:23:38;17.90;99.80
37594;DHT22;23441;50.856;6.076;2022-07-03T20:26:23;17.90;99.70
37594;DHT22;23441;50.856;6.076;2022-07-03T20:28:50;17.90;99.60
37594;DHT22;23441;50.856;6.076;2022-07-03T20:31:17;17.80;99.90
37594;DHT22;23441;50.856;6.076;2022-07-03T20:33:43;17.80;99.90
37594;DHT22;23441;50.856;6.076;2022-07-03T20:36:08;17.70;99.90
37594;DHT22;23441;50.856;6.076;2022-07-03T20:38:34;17.70;99.90
37594;DHT22;23441;50.856;6.076;2022-07-03T20:41:00;17.50;99.90
37594;DHT22;23441;50.856;6.076;2022-07-03T20:43:26;17.50;99.90
37594;DHT22;23441;50.856;6.076;2022-07-03T20:45:52;17.50;99.90
37594;DHT22;23441;50.856;6.076;2022-07-03T20:48:19;17.40;99.90
37594;DHT22;23441;50.856;6.076;2022-07-03T20:50:46;17.40;99.90
37594;DHT22;23441;50.856;6.076;2022-07-03T20:53:12;17.40;99.90
37594;DHT22;23441;50.856;6.076;2022-07-03T20:55:39;17.40;99.90
37594;DHT22;23441;50.856;6.076;2022-07-03T20:58:05;17.30;99.90
37594;DHT22;23441;50.856;6.076;2022-07-03T21:00:33;17.30;99.90
37594;DHT22;23441;50.856;6.076;2022-07-03T21:02:59;17.30;99.90
37594;DHT22;23441;50.856;6.076;2022-07-03T21:05:25;17.20;99.90
37594;DHT22;23441;50.856;6.076;2022-07-03T21:07:51;17.20;99.90
37594;DHT22;23441;50.856;6.076;2022-07-03T21:10:17;17.20;99.90
37594;DHT22;23441;50.856;6.076;2022-07-03T21:13:03;17.10;99.90
37594;DHT22;23441;50.856;6.076;2022-07-03T21:15:29;17.10;99.90
37594;DHT22;23441;50.856;6.076;2022-07-03T21:17:54;17.10;99.90
37594;DHT22;23441;50.856;6.076;2022-07-03T21:20:20;17.00;99.90
37594;DHT22;23441;50.856;6.076;2022-07-03T21:22:46;16.90;99.90
37594;DHT22;23441;50.856;6.076;2022-07-03T21:25:12;16.90;99.90
37594;DHT22;23441;50.856;6.076;2022-07-03T21:27:38;16.80;99.90
37594;DHT22;23441;50.856;6.076;2022-07-03T21:30:04;16.80;99.90
37594;DHT22;23441;50.856;6.076;2022-07-03T21:32:30;16.80;99.90
37594;DHT22;23441;50.856;6.076;2022-07-03T21:34:56;16.80;99.90
37594;DHT22;23441;50.856;6.076;2022-07-03T21:37:22;16.80;99.90
37594;DHT22;23441;50.856;6.076;2022-07-03T21:39:48;16.80;99.90
37594;DHT22;23441;50.856;6.076;2022-07-03T21:42:14;16.70;99.90
37594;DHT22;23441;50.856;6.076;2022-07-03T21:44:40;16.80;99.90
37594;DHT22;23441;50.856;6.076;2022-07-03T21:47:05;16.70;99.90
37594;DHT22;23441;50.856;6.076;2022-07-03T21:49:31;16.60;99.90
37594;DHT22;23441;50.856;6.076;2022-07-03T21:51:57;16.60;99.90
37594;DHT22;23441;50.856;6.076;2022-07-03T21:54:23;16.50;99.90
37594;DHT22;23441;50.856;6.076;2022-07-03T21:56:49;16.50;99.90
37594;DHT22;23441;50.856;6.076;2022-07-03T21:59:15;16.50;99.90
37594;DHT22;23441;50.856;6.076;2022-07-03T22:01:41;16.50;99.90
37594;DHT22;23441;50.856;6.076;2022-07-03T22:04:07;16.50;99.90
37594;DHT22;23441;50.856;6.076;2022-07-03T22:06:33;16.40;99.90
37594;DHT22;23441;50.856;6.076;2022-07-03T22:08:59;16.40;99.90
37594;DHT22;23441;50.856;6.076;2022-07-03T22:11:25;16.30;99.90
37594;DHT22;23441;50.856;6.076;2022-07-03T22:13:51;16.30;99.90
37594;DHT22;23441;50.856;6.076;2022-07-03T22:16:18;16.30;99.90
37594;DHT22;23441;50.856;6.076;2022-07-03T22:18:44;16.30;99.90
37594;DHT22;23441;50.856;6.076;2022-07-03T22:21:10;16.20;99.90
37594;DHT22;23441;50.856;6.076;2022-07-03T22:23:36;16.20;99.90
37594;DHT22;23441;50.856;6.076;2022-07-03T22:26:02;16.10;99.90
37594;DHT22;23441;50.856;6.076;2022-07-03T22:28:28;16.00;99.90
37594;DHT22;23441;50.856;6.076;2022-07-03T22:30:54;16.00;99.90
37594;DHT22;23441;50.856;6.076;2022-07-03T22:33:42;16.00;99.90
37594;DHT22;23441;50.856;6.076;2022-07-03T22:36:08;16.00;99.90
37594;DHT22;23441;50.856;6.076;2022-07-03T22:38:34;15.90;99.90
37594;DHT22;23441;50.856;6.076;2022-07-03T22:41:00;15.90;99.90
37594;DHT22;23441;50.856;6.076;2022-07-03T22:43:26;15.90;99.90
37594;DHT22;23441;50.856;6.076;2022-07-03T22:45:52;15.80;99.90
37594;DHT22;23441;50.856;6.076;2022-07-03T22:48:17;15.80;99.90
37594;DHT22;23441;50.856;6.076;2022-07-03T22:50:43;15.70;99.90
37594;DHT22;23441;50.856;6.076;2022-07-03T22:53:10;15.60;99.90
37594;DHT22;23441;50.856;6.076;2022-07-03T22:55:36;15.60;99.90
37594;DHT22;23441;50.856;6.076;2022-07-03T22:58:02;15.60;99.90
37594;DHT22;23441;50.856;6.076;2022-07-03T23:00:27;15.50;99.90
37594;DHT22;23441;50.856;6.076;2022-07-03T23:02:53;15.50;99.90
37594;DHT22;23441;50.856;6.076;2022-07-03T23:05:19;15.40;99.90
37594;DHT22;23441;50.856;6.076;2022-07-03T23:07:45;15.30;99.90
37594;DHT22;23441;50.856;6.076;2022-07-03T23:10:11;15.30;99.90
37594;DHT22;23441;50.856;6.076;2022-07-03T23:12:37;15.20;99.90
37594;DHT22;23441;50.856;6.076;2022-07-03T23:15:04;15.20;99.90
37594;DHT22;23441;50.856;6.076;2022-07-03T23:17:31;15.10;99.90
37594;DHT22;23441;50.856;6.076;2022-07-03T23:19:57;14.90;99.90
37594;DHT22;23441;50.856;6.076;2022-07-03T23:22:23;14.90;99.90
37594;DHT22;23441;50.856;6.076;2022-07-03T23:24:48;14.90;99.90
37594;DHT22;23441;50.856;6.076;2022-07-03T23:27:14;14.80;99.90
37594;DHT22;23441;50.856;6.076;2022-07-03T23:29:40;14.80;99.90
37594;DHT22;23441;50.856;6.076;2022-07-03T23:32:06;14.70;99.90
37594;DHT22;23441;50.856;6.076;2022-07-03T23:34:32;14.70;99.90
37594;DHT22;23441;50.856;6.076;2022-07-03T23:36:58;14.60;99.90
37594;DHT22;23441;50.856;6.076;2022-07-03T23:39:24;14.60;99.90
37594;DHT22;23441;50.856;6.076;2022-07-03T23:41:50;14.50;99.90
37594;DHT22;23441;50.856;6.076;2022-07-03T23:44:16;14.50;99.90
37594;DHT22;23441;50.856;6.076;2022-07-03T23:46:42;14.40;99.90
37594;DHT22;23441;50.856;6.076;2022-07-03T23:49:08;14.40;99.90
37594;DHT22;23441;50.856;6.076;2022-07-03T23:51:53;14.30;99.90
37594;DHT22;23441;50.856;6.076;2022-07-03T23:54:19;14.30;99.90
37594;DHT22;23441;50.856;6.076;2022-07-03T23:56:45;14.20;99.90
37594;DHT22;23441;50.856;6.076;2022-07-03T23:59:11;14.10;99.90
